»·PEaware :: RNGR811 KNGP-KNGP

RNGR811 :: KNGP-KNGP

FLIGHT INFORMATION

Flight Status: Arrived
Operator: Unknown
More flights by this operator :: More flights under this callsign
Pilot: USN Avenger (31125)
Aircraft: BEECH AIRCRAFT T-6A TEXAN
(TEX2)
More flights by this aircraft type
Origin: KNGP Corpus Christi NAS/Truax
United States
Destination: KNGP Corpus Christi NAS/Truax
United States
More flights between these airports :: More routes between these airports
Route: , PORTLAND LOW, KNGT, KTFP, SHAMROCK
File this flight plan on PilotEdge
Remarks:
Altitude:
(Current/Filed)
500ft
Speed:
(Current/Filed)
240kts
Departed: 29-Nov-23 02:45 PM
Arrived: 29-Nov-23 03:38 PM
Distance/Time
Traveled:
1nm/0:53
Distance/Time
To Go:
Arrived

Flight Plot

Page will automatically refresh every two minutes.

Flight plan parsing failed; only flown route is shown


Map Options




Map Legend


Flown Route
Filed Route
Departure Airport
Arrival Airport
Navaid (VOR, NDB)
Fix

Horizontal Profiles

Position Reports

Time Latitude Longitude Heading Altitude Ground
Speed
29-Nov-23 14:32 27.700511 -97.301034 134 22ft 0kts
29-Nov-23 14:33 27.700510 -97.301033 134 22ft 0kts
29-Nov-23 14:34 27.700509 -97.301031 134 22ft 0kts
29-Nov-23 14:35 27.700508 -97.301030 134 22ft 0kts
29-Nov-23 14:36 27.700506 -97.301028 134 22ft 0kts
29-Nov-23 14:37 27.700453 -97.300968 134 22ft 0kts
29-Nov-23 14:38 27.700452 -97.300967 134 22ft 0kts
29-Nov-23 14:39 27.700451 -97.300965 134 22ft 0kts
29-Nov-23 14:40 27.700450 -97.300964 134 22ft 0kts
29-Nov-23 14:41 27.700448 -97.300963 134 22ft 0kts
29-Nov-23 14:42 27.700447 -97.300961 134 22ft 0kts
29-Nov-23 14:43 27.700446 -97.300960 134 22ft 0kts
29-Nov-23 14:44 27.700445 -97.300959 134 22ft 0kts
29-Nov-23 14:45 27.694214 -97.293974 133 57ft 127kts
29-Nov-23 14:46 27.659781 -97.256349 132 664ft 224kts
29-Nov-23 14:47 27.686987 -97.221409 354 670ft 214kts
29-Nov-23 14:48 27.735392 -97.225452 357 662ft 206kts
29-Nov-23 14:49 27.759417 -97.226978 357 567ft 208kts
29-Nov-23 14:50 27.816015 -97.233274 343 621ft 202kts
29-Nov-23 14:51 27.863733 -97.265635 317 633ft 203kts
29-Nov-23 14:52 27.906149 -97.307201 326 708ft 202kts
29-Nov-23 14:53 27.959994 -97.335942 339 2214ft 223kts
29-Nov-23 14:53 28.009549 -97.355358 341 3590ft 224kts
29-Nov-23 14:55 28.082806 -97.377856 345 4990ft 240kts
29-Nov-23 14:56 28.146807 -97.399178 341 5483ft 245kts
29-Nov-23 14:57 28.211412 -97.426956 341 5622ft 250kts
29-Nov-23 14:57 28.266908 -97.453014 333 5259ft 258kts
29-Nov-23 14:58 28.324944 -97.500656 320 5139ft 256kts
29-Nov-23 14:59 28.377455 -97.554912 313 5212ft 251kts
29-Nov-23 15:01 28.429611 -97.626883 311 4894ft 255kts
29-Nov-23 15:02 28.472832 -97.686855 310 4361ft 246kts
29-Nov-23 15:02 28.511221 -97.736082 312 3146ft 249kts
29-Nov-23 15:03 28.564144 -97.782180 333 2216ft 240kts
29-Nov-23 15:04 28.625198 -97.781913 28 1480ft 230kts
29-Nov-23 15:05 28.656251 -97.726862 92 1329ft 211kts
29-Nov-23 15:06 28.638314 -97.665074 113 1302ft 205kts
29-Nov-23 15:07 28.618851 -97.604686 112 1310ft 203kts
29-Nov-23 15:08 28.631648 -97.610582 283 1040ft 125kts
29-Nov-23 15:09 28.621432 -97.619620 111 358ft 114kts
29-Nov-23 15:10 28.606575 -97.577402 132 871ft 200kts
29-Nov-23 15:11 28.558214 -97.537809 144 2356ft 220kts
29-Nov-23 15:12 28.507330 -97.495138 142 2803ft 238kts
29-Nov-23 15:13 28.452915 -97.448575 149 2758ft 241kts
29-Nov-23 15:14 28.395625 -97.405999 148 2556ft 248kts
29-Nov-23 15:15 28.335384 -97.368680 155 2504ft 245kts
29-Nov-23 15:16 28.272090 -97.339651 160 2466ft 246kts
29-Nov-23 15:17 28.213748 -97.301759 140 2530ft 243kts
29-Nov-23 15:18 28.159428 -97.254866 145 2497ft 244kts
29-Nov-23 15:19 28.102784 -97.211560 149 2397ft 246kts
29-Nov-23 15:20 28.040708 -97.180652 159 2441ft 244kts
29-Nov-23 15:21 27.976083 -97.172320 200 2527ft 242kts
29-Nov-23 15:22 27.927767 -97.216146 239 2276ft 217kts
29-Nov-23 15:23 27.917024 -97.280254 281 1558ft 201kts
29-Nov-23 15:24 27.953943 -97.318434 16 1540ft 200kts
29-Nov-23 15:25 27.975241 -97.265213 122 1247ft 202kts
29-Nov-23 15:26 27.930293 -97.225205 144 914ft 215kts
29-Nov-23 15:27 27.921376 -97.198788 318 777ft 123kts
29-Nov-23 15:28 27.922109 -97.219747 149 204ft 115kts
29-Nov-23 15:29 27.896890 -97.196690 141 356ft 136kts
29-Nov-23 15:30 27.859522 -97.165699 162 1207ft 212kts
29-Nov-23 15:31 27.797564 -97.179989 171 1089ft 246kts
29-Nov-23 15:32 27.741530 -97.195798 254 1286ft 222kts
29-Nov-23 15:33 27.730947 -97.263551 267 1064ft 213kts
29-Nov-23 15:34 27.703175 -97.297142 138 912ft 207kts
29-Nov-23 15:35 27.701654 -97.277600 309 738ft 101kts
29-Nov-23 15:36 27.698371 -97.294849 144 196ft 104kts
29-Nov-23 15:37 27.687456 -97.282985 137 22ft 16kts

Navigation Log

Ident Type
Flight plan parsing failed, navigation log unavailable